• Join FlightAware (Why Join?)
  • Login
  • US Flag 
03:24PM EST


 

Airport Tracker/Info


-or-


 

Live Flight TrackerFlight Track Log ✈ AMF5453 ✈ 08-Jan-2014 ✈ KSYR - KBUF

Flight Track Log - Related Links

Times and Time Zones

All times are in EST time to prevent confusion due to time zone crossing. See the AMF5453 flight status page for this flight to view local times or setup timezone preferences in your user account.

Time Position Orientation Groundspeed Altitude Reporting Facility
EST Latitude Longitude Course Direction KTS MPH feet Rate Location/Type
04:09PM 43.1169 -76.1656 292° West 141 162 2,700  Level Boston Center
04:10PM 43.1319 -76.2169 292° West 149 171 4,400 1,500 Climbing Boston Center
04:11PM 43.1472 -76.2656 293° West 144 166 5,800 1,080 Climbing Boston Center
04:11PM 43.1483 -76.2794 276° West 146 168 5,900 120 Climbing Boston Center
04:12PM 43.1528 -76.3317 277° West 159 183 6,000 60 Climbing Boston Center
04:12PM 43.1531 -76.3375 274° West 155 178 6,000  Level Boston Center
04:13PM 43.1550 -76.3939 273° West 162 186 6,000 -120 Level Boston Center
04:13PM 43.1553 -76.3992 274° West 159 183 5,900  Descending Boston Center
04:14PM 43.1533 -76.4544 267° West 161 185 6,000 60 Climbing Boston Center
04:14PM 43.1522 -76.4722 265° West 161 185 6,000 -120 Level Boston Center
04:15PM 43.1494 -76.5333 266° West 161 185 5,900  Descending Boston Center
04:16PM 43.1469 -76.5783 266° West 162 186 6,000  Climbing Boston Center
04:16PM 43.1478 -76.5942 274° West 161 185 5,900  Descending Boston Center
04:17PM 43.1469 -76.6397 269° West 161 185 6,000 60 Climbing Boston Center
04:18PM 43.1467 -76.6558 269° West 161 185 6,000  Level Boston Center
04:18PM 43.1469 -76.7011 270° West 169 194 6,000  Level Boston Center
04:19PM 43.1447 -76.7167 259° West 161 185 6,000  Level Boston Center
04:19PM 43.1428 -76.7611 267° West 164 189 6,000  Level Boston Center
04:20PM 43.1431 -76.7794 271° West 163 188 6,000 -120 Level Boston Center
04:21PM 43.1444 -76.8392 272° West 164 189 5,900  Descending Cleveland Center
04:21PM 43.1411 -76.8914 265° West 163 188 6,000 60 Climbing Cleveland Center
04:22PM 43.1408 -76.9136 269° West 164 189 6,000  Level Cleveland Center
04:22PM 43.1350 -76.9506 258° West 160 184 6,000  Level Cleveland Center
04:23PM 43.1325 -76.9736 262° West 164 189 6,000  Level Cleveland Center
04:23PM 43.1256 -77.0061 254° West 163 188 6,000  Level Cleveland Center
04:24PM 43.1222 -77.0339 261° West 164 189 6,000  Level Cleveland Center
04:24PM 43.1194 -77.0653 263° West 162 186 6,000  Level Cleveland Center
04:25PM 43.1167 -77.0944 263° West 162 186 6,000  Level Cleveland Center
04:25PM 43.1172 -77.1283 271° West 163 188 6,000  Level Cleveland Center
04:26PM 43.1161 -77.1556 267° West 161 185 6,000  Level Cleveland Center
04:26PM 43.1161 -77.1975 270° West 161 185 6,000  Level Cleveland Center
04:27PM 43.1181 -77.2289 275° West 160 184 6,000  Level Cleveland Center
04:27PM 43.1203 -77.2594 276° West 162 186 6,000  Level Cleveland Center
04:28PM 43.1231 -77.2900 277° West 161 185 6,000 -120 Level Cleveland Center
04:28PM 43.1244 -77.3214 273° West 163 188 5,900  Descending Cleveland Center
04:29PM 43.1264 -77.3517 275° West 162 186 6,000 60 Climbing Cleveland Center
04:29PM 43.1264 -77.3825 270° West 162 186 6,000  Level Cleveland Center
04:30PM 43.1283 -77.4125 275° West 162 186 6,000  Level Cleveland Center
04:30PM 43.1272 -77.4525 268° West 162 186 6,000  Level Cleveland Center
04:31PM 43.1283 -77.4736 274° West 162 186 6,000  Level Cleveland Center
04:31PM 43.1264 -77.5042 265° West 162 186 6,000  Level Cleveland Center
04:32PM 43.1267 -77.5483 271° West 163 188 6,000  Level Cleveland Center
04:32PM 43.1239 -77.5672 259° West 164 189 6,000  Level Cleveland Center
04:33PM 43.1231 -77.6092 268° West 163 188 6,000  Level Cleveland Center
04:33PM 43.1217 -77.6275 264° West 161 185 6,000  Level Cleveland Center
04:34PM 43.1197 -77.6703 266° West 162 186 6,000  Level Cleveland Center
04:34PM 43.1153 -77.6867 250° West 163 188 6,000  Level Cleveland Center
04:35PM 43.1072 -77.7317 256° West 172 198 6,000  Level Cleveland Center
04:35PM 43.1044 -77.7478 257° West 164 189 6,000  Level Cleveland Center
04:36PM 43.0981 -77.7922 259° West 166 191 6,000  Level Cleveland Center
04:36PM 43.0933 -77.8114 251° West 165 190 6,000  Level Cleveland Center
04:37PM 43.0858 -77.8525 256° West 166 191 6,000  Level Cleveland Center
04:37PM 43.0828 -77.8694 256° West 165 190 6,000  Level Cleveland Center
04:38PM 43.0719 -77.9244 255° West 164 189 6,000  Level Cleveland Center
04:38PM 43.0697 -77.9297 240° Southwest 164 189 6,000  Level Cleveland Center
04:39PM 43.0631 -77.9847 261° West 163 188 6,000 -300 Level Cleveland Center
04:40PM 43.0531 -78.0481 258° West 169 194 5,500 -540 Descending Cleveland Center
04:41PM 43.0375 -78.1125 252° West 177 204 4,900 -540 Descending Cleveland Center
04:42PM 43.0267 -78.1761 257° West 174 200 4,400 -480 Descending Cleveland Center
04:43PM 43.0097 -78.2497 253° West 171 197 4,000 -240 Descending Cleveland Center
04:44PM 43.0094 -78.3117 270° West 164 189 4,000  Level Cleveland Center
04:45PM 43.0214 -78.3703 286° West 164 189 4,000  Level Cleveland Center
04:46PM 43.0475 -78.4250 303° West 170 196 4,000  Level Cleveland Center
04:48PM 43.0733 -78.4781 304° West 169 194 4,000  Level Cleveland Center
04:49PM 43.1031 -78.5397 303° West 166 191 4,000  Level Cleveland Center
04:50PM 43.0944 -78.5883 256° West 174 200 4,000 -360 Level Cleveland Center
04:51PM 43.0503 -78.6003 191° South 171 197 3,300 -780 Descending Cleveland Center
04:52PM 43.0131 -78.6342 214° Southwest 162 186 2,500 -720 Descending Cleveland Center
04:52PM 43.0000 -78.6667 241° Southwest 113 130 2,000 -540 Descending Buffalo TRACON
04:54PM 42.9667 -78.6833 200° South 89 102 1,500 -540 Descending Buffalo TRACON
04:55PM 42.9500 -78.7167 236° Southwest 96 110 900 -600 Descending Buffalo TRACON